createdAt,value
2019-03-27T00:00:21.702Z,14.20
2019-03-27T00:02:55.116Z,14.10
2019-03-27T00:05:28.366Z,14.10
2019-03-27T00:08:01.596Z,14.20
2019-03-27T00:10:34.966Z,14.10
2019-03-27T00:13:08.380Z,14.20
2019-03-27T00:15:41.637Z,14.10
2019-03-27T00:18:14.960Z,14.10
2019-03-27T00:20:48.204Z,14.10
2019-03-27T00:23:21.465Z,14.10
2019-03-27T00:25:54.720Z,14.10
2019-03-27T00:28:27.987Z,14.10
2019-03-27T00:31:01.148Z,14.20
2019-03-27T00:33:34.401Z,14.20
2019-03-27T00:36:07.655Z,14.20
2019-03-27T00:38:40.912Z,14.20
2019-03-27T00:41:14.164Z,14.20
2019-03-27T00:43:47.502Z,14.20
2019-03-27T00:46:20.848Z,14.20
2019-03-27T00:48:54.105Z,14.20
2019-03-27T00:51:27.341Z,14.20
2019-03-27T00:54:00.609Z,14.20
2019-03-27T00:56:33.851Z,14.20
2019-03-27T00:59:07.111Z,14.20
2019-03-27T01:01:40.345Z,14.20
2019-03-27T01:04:13.616Z,14.20
2019-03-27T01:06:46.868Z,14.20
2019-03-27T01:09:20.143Z,14.20
2019-03-27T01:11:53.372Z,14.20
2019-03-27T01:14:26.632Z,14.20
2019-03-27T01:16:59.893Z,14.20
2019-03-27T01:19:33.170Z,14.20
2019-03-27T01:22:06.409Z,14.30
2019-03-27T01:24:39.767Z,14.30
2019-03-27T01:27:13.030Z,14.20
2019-03-27T01:29:46.300Z,14.20
2019-03-27T01:32:19.555Z,14.20
2019-03-27T01:34:52.839Z,14.20
2019-03-27T01:37:26.141Z,14.20
2019-03-27T01:39:59.414Z,14.20
2019-03-27T01:42:32.827Z,14.20
2019-03-27T01:45:06.681Z,14.20
2019-03-27T01:47:39.937Z,14.20
2019-03-27T01:50:13.207Z,14.20
2019-03-27T01:52:46.515Z,14.10
2019-03-27T01:55:19.783Z,14.10
2019-03-27T01:57:53.021Z,14.10
2019-03-27T02:00:26.289Z,14.10
2019-03-27T02:02:59.518Z,14.10
2019-03-27T02:05:32.866Z,14.10
2019-03-27T02:08:06.097Z,14.10
2019-03-27T02:10:39.362Z,14.10
2019-03-27T02:13:12.596Z,14.10
2019-03-27T02:15:45.878Z,14.10
2019-03-27T02:18:19.157Z,14.10
2019-03-27T02:20:52.418Z,14.10
2019-03-27T02:23:25.687Z,14.10
2019-03-27T02:25:58.919Z,14.10
2019-03-27T02:28:32.185Z,14.10
2019-03-27T02:31:05.413Z,14.10
2019-03-27T02:33:38.770Z,14.00
2019-03-27T02:36:12.001Z,14.10
2019-03-27T02:38:45.385Z,14.10
2019-03-27T02:41:18.636Z,14.10
2019-03-27T02:43:51.900Z,14.00
2019-03-27T02:46:25.714Z,14.00
2019-03-27T02:48:59.109Z,14.00
2019-03-27T02:51:32.453Z,14.10
2019-03-27T02:54:05.703Z,14.00
2019-03-27T02:56:38.960Z,14.00
2019-03-27T02:59:12.237Z,14.00
2019-03-27T03:01:48.024Z,14.00
2019-03-27T03:04:20.544Z,14.00
2019-03-27T03:06:53.814Z,14.00
2019-03-27T03:09:27.150Z,14.00
2019-03-27T03:12:00.436Z,14.00
2019-03-27T03:14:33.659Z,14.00
2019-03-27T03:17:06.960Z,14.00
2019-03-27T03:19:40.387Z,14.00
2019-03-27T03:22:13.657Z,14.00
2019-03-27T03:24:46.904Z,14.00
2019-03-27T03:27:20.207Z,14.00
2019-03-27T03:29:53.442Z,14.00
2019-03-27T03:32:26.705Z,14.00
2019-03-27T03:34:59.965Z,14.00
2019-03-27T03:37:51.493Z,14.00
2019-03-27T03:40:24.761Z,13.90
2019-03-27T03:42:58.189Z,13.90
2019-03-27T03:45:31.554Z,13.90
2019-03-27T03:48:04.739Z,13.80
2019-03-27T03:50:43.338Z,13.80
2019-03-27T03:53:18.244Z,13.80
2019-03-27T03:55:51.509Z,13.90
2019-03-27T03:58:24.782Z,13.90
2019-03-27T04:00:58.132Z,13.90
2019-03-27T04:03:32.530Z,13.90
2019-03-27T04:06:06.192Z,13.90
2019-03-27T04:08:39.473Z,13.90
2019-03-27T04:11:12.722Z,13.90
2019-03-27T04:13:46.002Z,13.90
2019-03-27T04:16:19.382Z,13.90
2019-03-27T04:18:52.647Z,14.00
2019-03-27T04:21:27.082Z,14.00
2019-03-27T04:24:00.567Z,13.90
2019-03-27T04:26:33.863Z,13.90
2019-03-27T04:29:07.166Z,14.00
2019-03-27T04:31:40.420Z,14.00
2019-03-27T04:34:13.692Z,13.90
2019-03-27T04:36:46.933Z,13.90
2019-03-27T04:39:20.286Z,13.90
2019-03-27T04:41:53.530Z,13.90
2019-03-27T04:44:26.794Z,13.90
2019-03-27T04:47:00.068Z,13.90
2019-03-27T04:49:33.381Z,13.80
2019-03-27T04:52:06.552Z,13.80
2019-03-27T04:54:39.825Z,13.70
2019-03-27T04:57:14.142Z,13.70
2019-03-27T04:59:47.414Z,13.60
2019-03-27T05:02:20.661Z,13.60
2019-03-27T05:04:54.112Z,13.60
2019-03-27T05:07:27.368Z,13.50
2019-03-27T05:10:00.646Z,13.50
2019-03-27T05:12:33.902Z,13.50
2019-03-27T05:15:07.512Z,13.50
2019-03-27T05:17:46.238Z,13.40
2019-03-27T05:20:15.732Z,13.40
2019-03-27T05:22:48.958Z,13.40
2019-03-27T05:25:22.256Z,13.30
2019-03-27T05:27:55.507Z,13.40
2019-03-27T05:30:31.641Z,13.40
2019-03-27T05:33:04.878Z,13.30
2019-03-27T05:35:38.129Z,13.30
2019-03-27T05:38:11.298Z,13.30
2019-03-27T05:40:44.574Z,13.30
2019-03-27T05:43:17.895Z,13.20
2019-03-27T05:45:51.218Z,13.20
2019-03-27T05:48:24.481Z,13.20
2019-03-27T05:50:57.715Z,13.20
2019-03-27T05:53:30.979Z,13.20
2019-03-27T05:56:04.217Z,13.20
2019-03-27T05:58:37.466Z,13.20
2019-03-27T06:01:10.718Z,13.20
2019-03-27T06:03:43.956Z,13.10
2019-03-27T06:06:17.196Z,13.10
2019-03-27T06:08:50.453Z,13.10
2019-03-27T06:11:23.686Z,13.10
2019-03-27T06:13:56.960Z,13.20
2019-03-27T06:16:30.181Z,13.10
2019-03-27T06:19:03.424Z,13.10
2019-03-27T06:21:36.605Z,13.10
2019-03-27T06:24:09.873Z,13.10
2019-03-27T06:26:43.130Z,13.10
2019-03-27T06:29:16.397Z,13.10
2019-03-27T06:31:49.628Z,13.10
2019-03-27T06:34:22.914Z,13.10
2019-03-27T06:36:56.164Z,13.20
2019-03-27T06:39:30.505Z,13.20
2019-03-27T06:42:03.738Z,13.20
2019-03-27T06:44:37.019Z,13.20
2019-03-27T06:47:11.306Z,13.20
2019-03-27T06:49:44.573Z,13.30
2019-03-27T06:52:18.905Z,13.30
2019-03-27T06:54:52.210Z,13.40
2019-03-27T06:57:26.427Z,13.40
2019-03-27T06:59:59.727Z,13.40
2019-03-27T07:02:32.958Z,13.50
2019-03-27T07:05:06.537Z,13.50
2019-03-27T07:07:39.770Z,13.50
2019-03-27T07:10:13.048Z,13.60
2019-03-27T07:12:46.282Z,13.60
2019-03-27T07:15:19.537Z,13.60
2019-03-27T07:17:52.774Z,13.60
2019-03-27T07:20:26.034Z,13.70
2019-03-27T07:22:59.280Z,13.70
2019-03-27T07:25:32.543Z,13.80
2019-03-27T07:28:05.781Z,13.90
2019-03-27T07:30:39.045Z,13.90
2019-03-27T07:33:12.281Z,14.00
2019-03-27T07:35:45.536Z,14.00
2019-03-27T07:38:18.782Z,14.10
2019-03-27T07:40:52.070Z,14.10
2019-03-27T07:43:25.302Z,14.20
2019-03-27T07:45:58.620Z,14.20
2019-03-27T07:48:31.888Z,14.30
2019-03-27T07:51:05.170Z,14.40
2019-03-27T07:53:39.478Z,14.50
2019-03-27T07:56:12.748Z,14.50
2019-03-27T07:58:46.002Z,14.60
2019-03-27T08:01:19.272Z,14.60
2019-03-27T08:03:52.523Z,14.70
2019-03-27T08:06:25.892Z,14.80
2019-03-27T08:08:59.076Z,14.90
2019-03-27T08:11:32.492Z,15.00
2019-03-27T08:14:06.858Z,15.10
2019-03-27T08:16:40.131Z,15.20
2019-03-27T08:19:13.427Z,15.30
2019-03-27T08:21:46.693Z,15.40
2019-03-27T08:24:19.952Z,15.50
2019-03-27T08:26:53.232Z,15.70
2019-03-27T08:29:26.478Z,15.80
2019-03-27T08:31:59.762Z,16.00
2019-03-27T08:34:33.011Z,16.10
2019-03-27T08:37:06.375Z,16.30
2019-03-27T08:39:39.621Z,16.50
2019-03-27T08:42:12.904Z,16.70
2019-03-27T08:44:46.179Z,17.00
2019-03-27T08:47:19.459Z,17.20
2019-03-27T08:49:52.715Z,17.40
2019-03-27T08:52:25.955Z,17.70
2019-03-27T08:54:59.241Z,17.90
2019-03-27T08:57:32.499Z,18.10
2019-03-27T09:00:06.384Z,18.30
2019-03-27T09:02:39.744Z,18.50
2019-03-27T09:05:13.019Z,18.60
2019-03-27T09:07:46.279Z,18.70
2019-03-27T09:10:19.510Z,18.70
2019-03-27T09:12:52.781Z,18.80
2019-03-27T09:15:26.012Z,18.80
2019-03-27T09:17:59.273Z,18.80
2019-03-27T09:20:32.525Z,18.80
2019-03-27T09:23:05.778Z,18.90
2019-03-27T09:25:39.126Z,18.90
2019-03-27T09:28:12.370Z,18.90
2019-03-27T09:30:45.602Z,18.90
2019-03-27T09:33:18.876Z,19.00
2019-03-27T09:35:52.169Z,19.00
2019-03-27T09:38:25.444Z,19.20
2019-03-27T09:40:58.728Z,19.30
2019-03-27T09:43:31.995Z,19.60
2019-03-27T09:46:05.257Z,19.80
2019-03-27T09:48:38.577Z,20.10
2019-03-27T09:51:11.806Z,20.50
2019-03-27T09:53:45.058Z,20.80
2019-03-27T09:56:19.539Z,21.10
2019-03-27T09:58:54.124Z,21.40
2019-03-27T10:01:27.356Z,21.70
2019-03-27T10:04:00.607Z,22.00
2019-03-27T10:06:33.855Z,22.30
2019-03-27T10:09:08.646Z,22.50
2019-03-27T10:11:41.887Z,22.80
2019-03-27T10:14:15.165Z,23.10
2019-03-27T10:16:48.398Z,23.30
2019-03-27T10:19:21.651Z,23.60
2019-03-27T10:21:54.868Z,23.80
2019-03-27T10:24:28.128Z,24.00
2019-03-27T10:27:01.298Z,24.20
2019-03-27T10:29:34.554Z,24.20
2019-03-27T10:32:07.779Z,24.20
2019-03-27T10:34:41.040Z,24.10
2019-03-27T10:37:14.329Z,24.00
2019-03-27T10:39:47.570Z,23.80
2019-03-27T10:42:20.815Z,23.60
2019-03-27T10:44:54.087Z,23.40
2019-03-27T10:47:28.420Z,23.20
2019-03-27T10:50:01.671Z,23.00
2019-03-27T10:52:34.904Z,22.80
2019-03-27T10:55:08.174Z,22.70
2019-03-27T10:57:41.340Z,22.50
2019-03-27T11:00:14.589Z,22.40
2019-03-27T11:02:47.900Z,22.30
2019-03-27T11:05:21.178Z,22.20
2019-03-27T11:07:54.485Z,22.10
2019-03-27T11:10:27.744Z,22.00
2019-03-27T11:13:00.984Z,22.00
2019-03-27T11:15:35.108Z,21.90
2019-03-27T11:18:09.288Z,21.80
2019-03-27T11:20:42.562Z,21.80
2019-03-27T11:23:15.857Z,21.70
2019-03-27T11:25:49.192Z,21.70
2019-03-27T11:28:23.984Z,21.60
2019-03-27T11:30:57.230Z,21.60
2019-03-27T11:33:32.022Z,21.50
2019-03-27T11:36:05.340Z,21.50
2019-03-27T11:38:38.579Z,21.40
2019-03-27T11:41:12.414Z,21.30
2019-03-27T11:43:54.831Z,21.20
2019-03-27T11:46:20.745Z,21.10
2019-03-27T11:48:53.975Z,21.00
2019-03-27T11:51:27.318Z,20.90
2019-03-27T11:54:00.539Z,20.80
2019-03-27T11:56:33.781Z,20.80
2019-03-27T11:59:07.023Z,20.60
2019-03-27T12:01:43.590Z,20.50
2019-03-27T12:04:15.182Z,20.50
2019-03-27T12:06:48.430Z,20.40
2019-03-27T12:09:21.667Z,20.30
2019-03-27T12:11:54.901Z,20.20
2019-03-27T12:14:28.224Z,20.20
2019-03-27T12:17:01.491Z,20.10
2019-03-27T12:19:37.746Z,20.00
2019-03-27T12:22:09.650Z,20.00
2019-03-27T12:24:42.930Z,19.90
2019-03-27T12:27:16.227Z,19.80
2019-03-27T12:29:49.467Z,19.80
2019-03-27T12:32:25.068Z,19.80
2019-03-27T12:34:57.705Z,19.70
2019-03-27T12:37:30.893Z,19.70
2019-03-27T12:40:11.430Z,19.60
2019-03-27T12:42:39.102Z,19.60
2019-03-27T12:45:12.328Z,19.50
2019-03-27T12:47:45.606Z,19.50
2019-03-27T12:50:18.832Z,19.50
2019-03-27T12:52:52.081Z,19.40
2019-03-27T12:55:25.239Z,19.40
2019-03-27T12:57:58.486Z,19.40
2019-03-27T13:00:32.743Z,19.30
2019-03-27T13:03:06.013Z,19.30
2019-03-27T13:05:39.234Z,19.30
2019-03-27T13:08:12.481Z,19.30
2019-03-27T13:10:46.692Z,19.30
2019-03-27T13:13:19.943Z,19.20
2019-03-27T13:15:53.158Z,19.20
2019-03-27T13:18:26.407Z,19.20
2019-03-27T13:20:59.627Z,19.20
2019-03-27T13:23:32.871Z,19.20
2019-03-27T13:26:06.097Z,19.20
2019-03-27T13:28:48.676Z,19.10
2019-03-27T13:31:14.285Z,19.20
2019-03-27T13:33:50.207Z,19.20
2019-03-27T13:36:22.444Z,19.10
2019-03-27T13:38:55.774Z,19.10
2019-03-27T13:41:28.927Z,19.10
2019-03-27T13:44:02.214Z,19.10
2019-03-27T13:46:35.495Z,19.10
2019-03-27T13:49:08.879Z,19.10
2019-03-27T13:51:42.418Z,19.10
2019-03-27T13:54:15.868Z,19.00
2019-03-27T13:56:49.121Z,19.10
2019-03-27T13:59:22.389Z,19.10
2019-03-27T14:01:56.682Z,19.10
2019-03-27T14:04:29.931Z,19.10
2019-03-27T14:07:03.149Z,19.10
2019-03-27T14:09:36.406Z,19.10
2019-03-27T14:12:09.638Z,19.10
2019-03-27T14:14:50.064Z,19.10
2019-03-27T14:17:17.802Z,19.10
2019-03-27T14:19:51.064Z,19.10
2019-03-27T14:22:25.479Z,19.10
2019-03-27T14:24:58.712Z,19.10
2019-03-27T14:27:31.947Z,19.10
2019-03-27T14:30:05.815Z,19.10
2019-03-27T14:32:39.111Z,19.10
2019-03-27T14:35:12.352Z,19.20
2019-03-27T14:37:45.607Z,19.10
2019-03-27T14:40:18.849Z,19.10
2019-03-27T14:42:52.120Z,19.10
2019-03-27T14:45:25.399Z,19.10
2019-03-27T14:47:58.733Z,19.10
2019-03-27T14:50:31.974Z,19.10
2019-03-27T14:53:06.274Z,19.10
2019-03-27T14:55:39.525Z,19.10
2019-03-27T14:58:12.684Z,19.10
2019-03-27T15:00:45.932Z,19.00
2019-03-27T15:03:19.162Z,19.00
2019-03-27T15:05:52.418Z,19.00
2019-03-27T15:08:25.655Z,19.00
2019-03-27T15:10:58.910Z,19.00
2019-03-27T15:13:32.166Z,19.00
2019-03-27T15:16:05.494Z,19.00
2019-03-27T15:18:38.728Z,18.90
2019-03-27T15:21:12.072Z,18.90
2019-03-27T15:23:45.305Z,18.90
2019-03-27T15:26:18.567Z,18.90
2019-03-27T15:28:51.802Z,18.90
2019-03-27T15:31:25.082Z,18.90
2019-03-27T15:33:58.311Z,18.90
2019-03-27T15:36:31.532Z,18.90
2019-03-27T15:39:06.503Z,18.80
2019-03-27T15:41:39.822Z,18.80
2019-03-27T15:44:16.108Z,18.80
2019-03-27T15:46:49.442Z,18.80
2019-03-27T15:49:22.703Z,18.80
2019-03-27T15:51:55.941Z,18.80
2019-03-27T15:54:29.202Z,18.80
2019-03-27T15:57:02.454Z,18.70
2019-03-27T15:59:35.682Z,18.70
2019-03-27T16:02:08.995Z,18.70
2019-03-27T16:04:42.238Z,18.60
2019-03-27T16:07:16.565Z,18.60
2019-03-27T16:09:49.798Z,18.60
2019-03-27T16:12:23.057Z,18.60
2019-03-27T16:14:56.297Z,18.50
2019-03-27T16:17:29.555Z,18.50
2019-03-27T16:20:02.793Z,18.50
2019-03-27T16:22:49.491Z,18.50
2019-03-27T16:25:11.024Z,18.50
2019-03-27T16:27:44.558Z,18.50
2019-03-27T16:30:17.862Z,18.40
2019-03-27T16:32:52.190Z,18.40
2019-03-27T16:35:25.405Z,18.40
2019-03-27T16:37:58.656Z,18.40
2019-03-27T16:40:45.712Z,18.40
2019-03-27T16:43:21.555Z,18.40
2019-03-27T16:45:54.799Z,18.40
2019-03-27T16:48:28.409Z,18.40
2019-03-27T16:51:01.645Z,18.40
2019-03-27T16:53:35.935Z,18.40
2019-03-27T16:56:09.297Z,18.30
2019-03-27T16:58:42.527Z,18.30
2019-03-27T17:01:15.841Z,18.30
2019-03-27T17:03:49.085Z,18.30
2019-03-27T17:06:22.314Z,18.30
2019-03-27T17:08:55.580Z,18.30
2019-03-27T17:11:28.790Z,18.20
2019-03-27T17:14:02.119Z,18.20
2019-03-27T17:16:35.401Z,18.20
2019-03-27T17:19:08.608Z,18.20
2019-03-27T17:21:41.884Z,18.10
2019-03-27T17:24:15.104Z,18.10
2019-03-27T17:26:48.375Z,18.10
2019-03-27T17:29:21.639Z,18.10
2019-03-27T17:31:54.915Z,18.00
2019-03-27T17:34:28.142Z,18.00
2019-03-27T17:37:01.321Z,18.00
2019-03-27T17:39:34.558Z,17.90
2019-03-27T17:42:07.832Z,17.90
2019-03-27T17:44:41.080Z,17.80
2019-03-27T17:47:14.383Z,17.80
2019-03-27T17:49:47.622Z,17.80
2019-03-27T17:52:20.882Z,17.70
2019-03-27T17:54:54.126Z,17.70
2019-03-27T17:57:27.387Z,17.70
2019-03-27T18:00:00.754Z,17.60
2019-03-27T18:02:34.176Z,17.60
2019-03-27T18:05:07.589Z,17.60
2019-03-27T18:07:40.833Z,17.50
2019-03-27T18:10:14.105Z,17.50
2019-03-27T18:12:47.370Z,17.50
2019-03-27T18:15:20.667Z,17.40
2019-03-27T18:17:53.962Z,17.40
2019-03-27T18:20:27.245Z,17.40
2019-03-27T18:23:00.537Z,16.90
2019-03-27T18:25:33.771Z,17.00
2019-03-27T18:28:08.107Z,17.00
2019-03-27T18:30:41.374Z,17.10
2019-03-27T18:33:14.642Z,17.10
2019-03-27T18:35:47.936Z,17.10
2019-03-27T18:38:21.390Z,17.10
2019-03-27T18:40:54.641Z,17.10
2019-03-27T18:43:27.919Z,17.10
2019-03-27T18:46:01.142Z,17.10
2019-03-27T18:48:34.589Z,17.00
2019-03-27T18:51:07.884Z,17.00
2019-03-27T18:53:41.072Z,16.90
2019-03-27T18:56:14.308Z,16.90
2019-03-27T18:58:47.583Z,16.80
2019-03-27T19:01:20.822Z,16.80
2019-03-27T19:03:54.181Z,16.70
2019-03-27T19:06:27.400Z,16.60
2019-03-27T19:09:00.696Z,16.60
2019-03-27T19:11:35.532Z,16.50
2019-03-27T19:14:08.822Z,16.50
2019-03-27T19:16:42.061Z,16.50
2019-03-27T19:19:15.313Z,16.40
2019-03-27T19:21:48.547Z,16.40
2019-03-27T19:24:21.817Z,16.30
2019-03-27T19:26:55.062Z,16.30
2019-03-27T19:29:28.325Z,16.30
2019-03-27T19:32:01.661Z,16.30
2019-03-27T19:34:34.956Z,16.20
2019-03-27T19:37:08.192Z,16.20
2019-03-27T19:39:41.522Z,16.20
2019-03-27T19:42:15.021Z,16.20
2019-03-27T19:44:48.375Z,16.20
2019-03-27T19:47:21.827Z,16.20
2019-03-27T19:49:55.084Z,16.10
2019-03-27T19:52:28.324Z,16.10
2019-03-27T19:55:01.650Z,16.10
2019-03-27T19:57:35.200Z,16.10
2019-03-27T20:00:10.733Z,16.00
2019-03-27T20:02:44.323Z,16.00
2019-03-27T20:05:17.608Z,16.00
2019-03-27T20:07:50.860Z,16.00
2019-03-27T20:10:24.119Z,15.90
2019-03-27T20:12:57.362Z,15.90
2019-03-27T20:15:30.622Z,15.90
2019-03-27T20:18:03.873Z,15.80
2019-03-27T20:20:37.133Z,15.80
2019-03-27T20:23:15.143Z,15.70
2019-03-27T20:25:45.583Z,15.70
2019-03-27T20:28:18.821Z,15.70
2019-03-27T20:30:52.089Z,15.70
2019-03-27T20:33:25.369Z,15.60
2019-03-27T20:35:58.690Z,15.60
2019-03-27T20:38:31.970Z,15.60
2019-03-27T20:41:05.230Z,15.60
2019-03-27T20:43:38.602Z,15.60
2019-03-27T20:46:24.328Z,15.50
2019-03-27T20:48:46.842Z,15.50
2019-03-27T20:51:20.123Z,15.50
2019-03-27T20:53:53.641Z,15.50
2019-03-27T20:56:26.995Z,15.50
2019-03-27T20:59:01.489Z,15.50
2019-03-27T21:01:35.109Z,15.40
2019-03-27T21:04:09.416Z,15.40
2019-03-27T21:06:42.683Z,15.40
2019-03-27T21:09:15.936Z,15.40
2019-03-27T21:11:49.236Z,15.30
2019-03-27T21:14:22.419Z,15.30
2019-03-27T21:16:55.658Z,15.30
2019-03-27T21:19:28.935Z,15.20
2019-03-27T21:22:02.227Z,15.20
2019-03-27T21:24:35.501Z,15.10
2019-03-27T21:27:08.749Z,15.10
2019-03-27T21:29:42.024Z,15.00
2019-03-27T21:32:15.259Z,15.00
2019-03-27T21:34:48.530Z,14.90
2019-03-27T21:37:21.807Z,14.90
2019-03-27T21:39:55.085Z,14.90
2019-03-27T21:42:28.348Z,14.90
2019-03-27T21:45:01.619Z,14.80
2019-03-27T21:47:35.655Z,14.80
2019-03-27T21:50:09.012Z,14.80
2019-03-27T21:52:42.295Z,14.80
2019-03-27T21:55:22.330Z,14.80
2019-03-27T21:57:50.521Z,14.70
2019-03-27T22:00:38.947Z,14.70
2019-03-27T22:03:12.222Z,14.70
2019-03-27T22:05:45.467Z,14.70
2019-03-27T22:08:18.740Z,14.60
2019-03-27T22:10:51.993Z,14.60
2019-03-27T22:13:25.381Z,14.60
2019-03-27T22:15:58.659Z,14.60
2019-03-27T22:18:31.982Z,14.60
2019-03-27T22:21:05.276Z,14.50
2019-03-27T22:23:38.509Z,14.50
2019-03-27T22:26:11.777Z,14.50
2019-03-27T22:28:45.008Z,14.40
2019-03-27T22:31:18.261Z,14.40
2019-03-27T22:33:51.506Z,14.40
2019-03-27T22:36:24.764Z,14.40
2019-03-27T22:38:57.992Z,14.30
2019-03-27T22:41:31.183Z,14.30
2019-03-27T22:44:04.411Z,14.30
2019-03-27T22:46:37.672Z,14.30
2019-03-27T22:49:10.922Z,14.30
2019-03-27T22:51:44.171Z,14.30
2019-03-27T22:54:17.434Z,14.30
2019-03-27T22:56:50.672Z,14.20
2019-03-27T22:59:23.930Z,14.20
2019-03-27T23:01:57.184Z,14.20
2019-03-27T23:04:30.424Z,14.20
2019-03-27T23:07:03.686Z,14.20
2019-03-27T23:09:36.958Z,14.20
2019-03-27T23:12:10.267Z,14.10
2019-03-27T23:14:43.531Z,14.10
2019-03-27T23:17:16.778Z,14.00
2019-03-27T23:19:51.322Z,14.00
2019-03-27T23:22:24.836Z,14.00
2019-03-27T23:24:58.080Z,13.90
2019-03-27T23:27:31.341Z,13.90
2019-03-27T23:30:05.487Z,13.90
2019-03-27T23:32:39.121Z,13.90
2019-03-27T23:35:12.549Z,13.90
2019-03-27T23:37:45.973Z,13.90
2019-03-27T23:40:19.202Z,13.80
2019-03-27T23:42:53.530Z,13.80
2019-03-27T23:45:26.758Z,13.80
2019-03-27T23:48:00.055Z,13.80
2019-03-27T23:50:33.282Z,13.80
2019-03-27T23:53:06.542Z,13.80
2019-03-27T23:55:39.798Z,13.80
2019-03-27T23:58:13.068Z,13.80
